Time,TemperatureF,DewpointF,PressureIn,WindDirection,WindDirectionDegrees,WindSpeedMPH,WindSpeedGustMPH,Humidity,HourlyPrecipIn,Conditions,Clouds,dailyrainin,SoftwareType,DateUTC
2013-03-07 00:14:00,32.5,29.0,30.29,WNW,288,0.0,1.0,88,0.00,,,0.00,weatherlink.com 1.10,2013-03-07 05:14:00,
2013-03-07 00:29:00,32.4,30.0,30.29,NNW,332,0.0,1.0,89,0.00,,,0.00,weatherlink.com 1.10,2013-03-07 05:29:00,
2013-03-07 00:44:00,32.3,30.0,30.29,NW,308,0.0,1.0,89,0.00,,,0.00,weatherlink.com 1.10,2013-03-07 05:44:00,
2013-03-07 00:59:00,32.1,30.0,30.29,NW,316,0.0,1.0,90,0.00,,,0.00,weatherlink.com 1.10,2013-03-07 05:59:00,
2013-03-07 01:14:00,32.0,29.0,30.29,NW,319,0.0,0.0,90,0.00,,,0.00,weatherlink.com 1.10,2013-03-07 06:14:00,
2013-03-07 01:29:00,31.9,29.0,30.29,NW,316,0.0,2.0,90,0.00,,,0.00,weatherlink.com 1.10,2013-03-07 06:29:00,
2013-03-07 01:44:00,31.9,29.0,30.30,NNE,23,0.0,1.0,90,0.00,,,0.00,weatherlink.com 1.10,2013-03-07 06:44:00,
2013-03-07 02:00:00,31.8,29.0,30.30,NNE,15,0.0,2.0,90,0.00,,,0.00,weatherlink.com 1.10,2013-03-07 07:00:00,
2013-03-07 02:15:00,31.8,30.0,30.30,WNW,291,2.0,2.0,91,0.00,,,0.00,weatherlink.com 1.10,2013-03-07 07:15:00,
2013-03-07 02:30:00,31.7,29.0,30.30,NNW,342,0.0,2.0,91,0.00,,,0.00,weatherlink.com 1.10,2013-03-07 07:30:00,
2013-03-07 03:00:00,31.7,29.0,30.30,NNW,334,1.0,3.0,91,0.00,,,0.00,weatherlink.com 1.10,2013-03-07 08:00:00,
2013-03-07 03:15:00,31.7,29.0,30.30,NNW,334,0.0,2.0,91,0.00,,,0.00,weatherlink.com 1.10,2013-03-07 08:15:00,
2013-03-07 03:30:00,31.8,30.0,30.31,NW,326,0.0,4.0,91,0.00,,,0.00,weatherlink.com 1.10,2013-03-07 08:30:00,
2013-03-07 03:45:00,31.8,30.0,30.31,North,354,1.0,3.0,91,0.00,,,0.00,weatherlink.com 1.10,2013-03-07 08:45:00,
2013-03-07 04:00:00,31.8,30.0,30.31,NNW,337,0.0,2.0,91,0.00,,,0.00,weatherlink.com 1.10,2013-03-07 09:00:00,
2013-03-07 04:15:00,31.8,30.0,30.32,North,11,1.0,2.0,91,0.00,,,0.00,weatherlink.com 1.10,2013-03-07 09:15:00,
2013-03-07 04:45:00,31.7,29.0,30.33,NNW,340,1.0,3.0,91,0.00,,,0.00,weatherlink.com 1.10,2013-03-07 09:45:00,
2013-03-07 05:00:00,31.7,29.0,30.33,NW,326,1.0,2.0,91,0.00,,,0.00,weatherlink.com 1.10,2013-03-07 10:00:00,
2013-03-07 05:15:00,31.7,29.0,30.34,NW,316,1.0,3.0,91,0.00,,,0.00,weatherlink.com 1.10,2013-03-07 10:15:00,
2013-03-07 05:30:00,31.7,29.0,30.34,NNW,333,1.0,3.0,91,0.00,,,0.00,weatherlink.com 1.10,2013-03-07 10:30:00,
2013-03-07 05:45:00,31.6,29.0,30.34,NW,310,1.0,2.0,91,0.00,,,0.00,weatherlink.com 1.10,2013-03-07 10:45:00,
2013-03-07 06:00:00,31.6,29.0,30.34,NW,323,2.0,2.0,91,0.00,,,0.00,weatherlink.com 1.10,2013-03-07 11:00:00,
2013-03-07 06:15:00,31.5,29.0,30.34,NNW,335,0.0,1.0,91,0.00,,,0.00,weatherlink.com 1.10,2013-03-07 11:15:00,
2013-03-07 06:30:00,31.4,29.0,30.34,NW,313,1.0,2.0,91,0.00,,,0.00,weatherlink.com 1.10,2013-03-07 11:30:00,
2013-03-07 06:45:00,31.4,29.0,30.35,North,358,0.0,1.0,91,0.00,,,0.00,weatherlink.com 1.10,2013-03-07 11:45:00,
2013-03-07 07:00:00,31.3,29.0,30.35,NW,317,0.0,3.0,91,0.00,,,0.00,weatherlink.com 1.10,2013-03-07 12:00:00,
2013-03-07 07:15:00,31.3,29.0,30.36,NW,320,0.0,2.0,91,0.00,,,0.00,weatherlink.com 1.10,2013-03-07 12:15:00,
2013-03-07 07:30:00,31.3,29.0,30.37,NNW,335,0.0,2.0,91,0.00,,,0.00,weatherlink.com 1.10,2013-03-07 12:30:00,
2013-03-07 07:45:00,31.5,29.0,30.38,NNW,331,1.0,3.0,91,0.00,,,0.00,weatherlink.com 1.10,2013-03-07 12:45:00,
2013-03-07 08:00:00,31.7,29.0,30.39,NNW,327,0.0,3.0,90,0.00,,,0.00,weatherlink.com 1.10,2013-03-07 13:00:00,
2013-03-07 08:15:00,31.8,29.0,30.39,NNW,333,2.0,3.0,89,0.00,,,0.00,weatherlink.com 1.10,2013-03-07 13:15:00,
2013-03-07 08:30:00,32.1,29.0,30.40,North,355,2.0,2.0,88,0.00,,,0.00,weatherlink.com 1.10,2013-03-07 13:30:00,
2013-03-07 08:45:00,32.4,29.0,30.41,North,1,1.0,4.0,86,0.00,,,0.00,weatherlink.com 1.10,2013-03-07 13:45:00,
2013-03-07 09:00:00,32.8,28.0,30.40,NNW,337,1.0,3.0,83,0.00,,,0.00,weatherlink.com 1.10,2013-03-07 14:00:00,
2013-03-07 09:15:00,33.5,28.0,30.40,North,356,0.0,2.0,79,0.00,,,0.00,weatherlink.com 1.10,2013-03-07 14:15:00,
2013-03-07 09:30:00,34.8,28.0,30.41,North,10,1.0,1.0,76,0.00,,,0.00,weatherlink.com 1.10,2013-03-07 14:30:00,
2013-03-07 09:46:00,35.0,26.0,30.41,North,353,1.0,3.0,71,0.00,,,0.00,weatherlink.com 1.10,2013-03-07 14:46:00,
2013-03-07 10:01:00,35.6,26.0,30.41,NNW,339,1.0,3.0,69,0.00,,,0.00,weatherlink.com 1.10,2013-03-07 15:01:00,
2013-03-07 10:16:00,36.1,24.0,30.41,NE,51,0.0,3.0,63,0.00,,,0.00,weatherlink.com 1.10,2013-03-07 15:16:00,
2013-03-07 10:31:00,36.6,25.0,30.41,North,352,1.0,3.0,62,0.00,,,0.00,weatherlink.com 1.10,2013-03-07 15:31:00,
2013-03-07 10:46:00,36.8,24.0,30.41,NE,34,0.0,4.0,59,0.00,,,0.00,weatherlink.com 1.10,2013-03-07 15:46:00,
2013-03-07 11:01:00,36.2,22.0,30.41,NNW,340,0.0,4.0,57,0.00,,,0.00,weatherlink.com 1.10,2013-03-07 16:01:00,
2013-03-07 11:16:00,35.7,22.0,30.41,NW,326,0.0,3.0,59,0.00,,,0.00,weatherlink.com 1.10,2013-03-07 16:16:00,
2013-03-07 11:46:00,35.8,22.0,30.42,NW,326,2.0,4.0,58,0.00,,,0.00,weatherlink.com 1.10,2013-03-07 16:46:00,
2013-03-07 12:01:00,36.2,24.0,30.42,NW,316,2.0,5.0,61,0.00,,,0.00,weatherlink.com 1.10,2013-03-07 17:01:00,
2013-03-07 12:16:00,36.1,24.0,30.42,NNW,337,2.0,4.0,61,0.00,,,0.00,weatherlink.com 1.10,2013-03-07 17:16:00,
2013-03-07 12:31:00,36.2,24.0,30.41,NNW,346,0.0,3.0,61,0.00,,,0.00,weatherlink.com 1.10,2013-03-07 17:31:00,
2013-03-07 12:46:00,37.1,25.0,30.41,NNW,347,2.0,3.0,61,0.00,,,0.00,weatherlink.com 1.10,2013-03-07 17:46:00,
2013-03-07 13:16:00,36.9,24.0,30.40,NW,307,3.0,3.0,59,0.00,,,0.00,weatherlink.com 1.10,2013-03-07 18:16:00,
2013-03-07 13:31:00,36.8,23.0,30.40,NW,317,1.0,4.0,58,0.00,,,0.00,weatherlink.com 1.10,2013-03-07 18:31:00,
2013-03-07 13:46:00,36.7,23.0,30.41,NW,322,2.0,5.0,58,0.00,,,0.00,weatherlink.com 1.10,2013-03-07 18:46:00,
2013-03-07 14:01:00,36.8,23.0,30.41,NW,322,2.0,7.0,58,0.00,,,0.00,weatherlink.com 1.10,2013-03-07 19:01:00,
2013-03-07 14:16:00,36.9,23.0,30.40,NW,316,1.0,4.0,57,0.00,,,0.00,weatherlink.com 1.10,2013-03-07 19:16:00,
2013-03-07 14:31:00,37.7,23.0,30.40,WSW,257,3.0,4.0,55,0.00,,,0.00,weatherlink.com 1.10,2013-03-07 19:31:00,
2013-03-07 14:46:00,37.5,22.0,30.40,NNW,335,0.0,6.0,54,0.00,,,0.00,weatherlink.com 1.10,2013-03-07 19:46:00,
2013-03-07 15:01:00,37.4,22.0,30.40,NNW,330,2.0,4.0,55,0.00,,,0.00,weatherlink.com 1.10,2013-03-07 20:01:00,
2013-03-07 15:16:00,37.6,23.0,30.41,NW,314,2.0,4.0,55,0.00,,,0.00,weatherlink.com 1.10,2013-03-07 20:16:00,
2013-03-07 15:31:00,37.5,23.0,30.41,NNE,32,1.0,3.0,56,0.00,,,0.00,weatherlink.com 1.10,2013-03-07 20:31:00,
2013-03-07 16:01:00,36.9,23.0,30.41,WNW,295,2.0,3.0,57,0.00,,,0.00,weatherlink.com 1.10,2013-03-07 21:01:00,
2013-03-07 16:16:00,36.7,23.0,30.41,NW,326,1.0,3.0,58,0.00,,,0.00,weatherlink.com 1.10,2013-03-07 21:16:00,
2013-03-07 16:31:00,36.7,23.0,30.41,North,355,1.0,2.0,59,0.00,,,0.00,weatherlink.com 1.10,2013-03-07 21:31:00,
2013-03-07 16:46:00,36.4,24.0,30.41,NNW,347,1.0,3.0,60,0.00,,,0.00,weatherlink.com 1.10,2013-03-07 21:46:00,
2013-03-07 17:01:00,36.4,24.0,30.41,North,3,1.0,2.0,60,0.00,,,0.00,weatherlink.com 1.10,2013-03-07 22:01:00,
2013-03-07 17:16:00,36.0,23.0,30.41,NW,309,1.0,3.0,59,0.00,,,0.00,weatherlink.com 1.10,2013-03-07 22:16:00,
2013-03-07 17:31:00,35.6,24.0,30.42,NW,324,0.0,3.0,62,0.00,,,0.00,weatherlink.com 1.10,2013-03-07 22:31:00,
2013-03-07 17:46:00,35.3,24.0,30.42,West,269,1.0,2.0,63,0.00,,,0.00,weatherlink.com 1.10,2013-03-07 22:46:00,
2013-03-07 18:02:00,35.0,23.0,30.42,North,5,2.0,2.0,63,0.00,,,0.00,weatherlink.com 1.10,2013-03-07 23:02:00,
2013-03-07 18:16:00,34.8,24.0,30.43,NW,313,0.0,4.0,64,0.00,,,0.00,weatherlink.com 1.10,2013-03-07 23:16:00,
2013-03-07 18:31:00,34.5,25.0,30.44,NNW,346,1.0,4.0,67,0.00,,,0.00,weatherlink.com 1.10,2013-03-07 23:31:00,
2013-03-07 18:47:00,34.1,25.0,30.44,North,349,0.0,4.0,68,0.00,,,0.00,weatherlink.com 1.10,2013-03-07 23:47:00,
2013-03-07 19:01:00,33.5,25.0,30.44,WNW,290,1.0,4.0,70,0.00,,,0.00,weatherlink.com 1.10,2013-03-08 00:01:00,
2013-03-07 19:16:00,33.0,25.0,30.44,NNW,336,0.0,3.0,71,0.00,,,0.00,weatherlink.com 1.10,2013-03-08 00:16:00,
2013-03-07 19:46:00,31.8,24.0,30.45,North,349,1.0,2.0,74,0.00,,,0.00,weatherlink.com 1.10,2013-03-08 00:46:00,
2013-03-07 20:01:00,31.3,24.0,30.45,NNW,347,0.0,1.0,75,0.00,,,0.00,weatherlink.com 1.10,2013-03-08 01:01:00,
2013-03-07 20:17:00,30.6,24.0,30.45,NNW,347,0.0,1.0,77,0.00,,,0.00,weatherlink.com 1.10,2013-03-08 01:17:00,
2013-03-07 20:32:00,29.6,24.0,30.46,North,349,0.0,0.0,79,0.00,,,0.00,weatherlink.com 1.10,2013-03-08 01:32:00,
2013-03-07 20:47:00,29.1,23.0,30.46,North,349,0.0,0.0,79,0.00,,,0.00,weatherlink.com 1.10,2013-03-08 01:47:00,
2013-03-07 21:02:00,28.5,23.0,30.46,North,349,0.0,0.0,80,0.00,,,0.00,weatherlink.com 1.10,2013-03-08 02:02:00,
2013-03-07 21:17:00,27.9,23.0,30.46,North,349,0.0,0.0,81,0.00,,,0.00,weatherlink.com 1.10,2013-03-08 02:17:00,
2013-03-07 21:32:00,27.1,23.0,30.46,North,349,0.0,0.0,83,0.00,,,0.00,weatherlink.com 1.10,2013-03-08 02:32:00,
2013-03-07 21:47:00,26.4,23.0,30.46,North,349,0.0,0.0,86,0.00,,,0.00,weatherlink.com 1.10,2013-03-08 02:47:00,
2013-03-07 22:02:00,25.9,23.0,30.46,NNW,348,0.0,0.0,87,0.00,,,0.00,weatherlink.com 1.10,2013-03-08 03:02:00,
2013-03-07 22:17:00,25.0,22.0,30.46,North,349,0.0,0.0,88,0.00,,,0.00,weatherlink.com 1.10,2013-03-08 03:17:00,
2013-03-07 22:32:00,24.4,22.0,30.46,North,349,0.0,0.0,90,0.00,,,0.00,weatherlink.com 1.10,2013-03-08 03:32:00,
2013-03-07 22:47:00,24.2,22.0,30.46,North,349,0.0,0.0,89,0.00,,,0.00,weatherlink.com 1.10,2013-03-08 03:47:00,
2013-03-07 23:02:00,23.2,21.0,30.46,North,349,0.0,0.0,89,0.00,,,0.00,weatherlink.com 1.10,2013-03-08 04:02:00,
2013-03-07 23:17:00,22.4,20.0,30.47,North,349,0.0,0.0,91,0.00,,,0.00,weatherlink.com 1.10,2013-03-08 04:17:00,
2013-03-07 23:32:00,22.4,21.0,30.47,North,349,0.0,0.0,92,0.00,,,0.00,weatherlink.com 1.10,2013-03-08 04:32:00,
2013-03-07 23:47:00,22.3,21.0,30.47,NNW,348,0.0,0.0,93,0.00,,,0.00,weatherlink.com 1.10,2013-03-08 04:47:00,